createdAt,value
2022-10-17T00:01:54.024Z,8.30
2022-10-17T00:04:22.790Z,9.43
2022-10-17T00:06:51.425Z,8.97
2022-10-17T00:09:20.591Z,9.60
2022-10-17T00:11:49.240Z,9.57
2022-10-17T00:14:17.863Z,8.20
2022-10-17T00:16:46.251Z,8.87
2022-10-17T00:19:16.273Z,9.50
2022-10-17T00:21:44.865Z,9.03
2022-10-17T00:24:13.419Z,8.13
2022-10-17T00:26:42.105Z,8.23
2022-10-17T00:29:10.978Z,9.17
2022-10-17T00:31:39.680Z,8.07
2022-10-17T00:34:08.273Z,8.03
2022-10-17T00:36:38.330Z,9.27
2022-10-17T00:39:07.121Z,9.57
2022-10-17T00:41:36.282Z,8.37
2022-10-17T00:44:29.027Z,8.63
2022-10-17T00:47:02.120Z,8.97
2022-10-17T00:49:35.789Z,7.60
2022-10-17T00:52:11.492Z,8.37
2022-10-17T00:54:46.213Z,8.17
2022-10-17T00:57:15.664Z,8.70
2022-10-17T00:59:50.339Z,9.90
2022-10-17T01:02:22.589Z,7.97
2022-10-17T01:04:55.103Z,8.00
2022-10-17T01:07:25.315Z,7.53
2022-10-17T01:09:54.669Z,8.50
2022-10-17T01:12:27.992Z,7.90
2022-10-17T01:15:18.639Z,8.23
2022-10-17T01:18:08.296Z,7.80
2022-10-17T01:21:36.154Z,7.27
2022-10-17T01:24:47.622Z,7.70
2022-10-17T01:27:54.105Z,7.77
2022-10-17T01:31:13.463Z,7.73
2022-10-17T01:34:03.458Z,8.07
2022-10-17T01:36:42.194Z,7.73
2022-10-17T01:39:22.278Z,7.53
2022-10-17T01:42:00.083Z,8.47
2022-10-17T01:44:36.311Z,8.10
2022-10-17T01:47:14.831Z,7.90
2022-10-17T01:49:46.900Z,7.97
2022-10-17T01:52:21.549Z,7.73
2022-10-17T01:54:55.548Z,8.67
2022-10-17T01:57:31.896Z,8.30
2022-10-17T02:00:03.938Z,8.97
2022-10-17T02:02:44.843Z,7.90
2022-10-17T02:05:13.796Z,9.90
2022-10-17T02:07:43.203Z,8.80
2022-10-17T02:10:20.150Z,8.87
2022-10-17T02:12:57.782Z,8.37
2022-10-17T02:15:47.242Z,9.50
2022-10-17T02:18:48.196Z,9.23
2022-10-17T02:21:25.691Z,8.73
2022-10-17T02:23:59.818Z,9.73
2022-10-17T02:26:34.635Z,8.53
2022-10-17T02:29:11.331Z,9.30
2022-10-17T02:31:45.040Z,8.37
2022-10-17T02:34:22.296Z,8.83
2022-10-17T02:36:56.293Z,8.40
2022-10-17T02:39:28.564Z,9.60
2022-10-17T02:42:03.145Z,9.47
2022-10-17T02:44:36.325Z,10.10
2022-10-17T02:47:15.722Z,10.00
2022-10-17T02:49:52.121Z,9.53
2022-10-17T02:52:29.584Z,10.10
2022-10-17T02:55:04.455Z,8.83
2022-10-17T02:57:38.249Z,8.60
2022-10-17T03:00:12.295Z,9.30
2022-10-17T03:02:45.027Z,8.57
2022-10-17T03:05:21.678Z,8.07
2022-10-17T03:07:50.470Z,9.20
2022-10-17T03:10:22.022Z,8.73
2022-10-17T03:12:50.968Z,8.50
2022-10-17T03:15:23.347Z,9.53
2022-10-17T03:17:51.801Z,9.40
2022-10-17T03:20:25.359Z,7.93
2022-10-17T03:22:54.004Z,9.03
2022-10-17T03:25:26.997Z,9.03
2022-10-17T03:27:55.628Z,9.10
2022-10-17T03:30:25.897Z,8.40
2022-10-17T03:32:55.239Z,8.37
2022-10-17T03:35:26.161Z,8.53
2022-10-17T03:37:56.283Z,8.40
2022-10-17T03:40:28.511Z,8.20
2022-10-17T03:42:57.146Z,8.20
2022-10-17T03:45:27.493Z,9.00
2022-10-17T03:47:56.028Z,7.80
2022-10-17T03:50:25.920Z,7.80
2022-10-17T03:52:54.567Z,9.00
2022-10-17T03:55:23.257Z,9.30
2022-10-17T03:57:51.775Z,8.57
2022-10-17T04:00:22.418Z,8.20
2022-10-17T04:02:56.946Z,8.17
2022-10-17T04:05:29.407Z,8.53
2022-10-17T04:08:01.065Z,8.57
2022-10-17T04:10:52.440Z,8.37
2022-10-17T04:13:23.236Z,8.50
2022-10-17T04:15:56.665Z,8.93
2022-10-17T04:18:25.678Z,7.37
2022-10-17T04:20:55.565Z,8.03
2022-10-17T04:23:26.828Z,8.10
2022-10-17T04:26:01.646Z,8.00
2022-10-17T04:28:32.083Z,7.80
2022-10-17T04:31:03.328Z,7.90
2022-10-17T04:33:37.331Z,7.70
2022-10-17T04:36:11.732Z,8.53
2022-10-17T04:38:40.709Z,7.83
2022-10-17T04:41:15.923Z,8.90
2022-10-17T04:43:48.533Z,8.20
2022-10-17T04:46:20.447Z,8.70
2022-10-17T04:48:49.978Z,8.37
2022-10-17T04:51:23.147Z,7.27
2022-10-17T04:54:29.908Z,7.80
2022-10-17T04:57:08.758Z,7.87
2022-10-17T04:59:38.528Z,8.20
2022-10-17T05:02:17.837Z,7.50
2022-10-17T05:04:47.706Z,7.80
2022-10-17T05:07:18.561Z,7.80
2022-10-17T05:09:46.888Z,8.10
2022-10-17T05:12:15.383Z,8.13
2022-10-17T05:14:46.683Z,7.60
2022-10-17T05:17:15.918Z,7.70
2022-10-17T05:19:44.676Z,7.77
2022-10-17T05:22:13.296Z,7.50
2022-10-17T05:24:47.541Z,7.10
2022-10-17T05:27:16.195Z,7.50
2022-10-17T05:29:45.800Z,6.80
2022-10-17T05:32:22.792Z,7.83
2022-10-17T05:34:51.795Z,7.03
2022-10-17T05:37:22.018Z,7.30
2022-10-17T05:39:54.568Z,7.43
2022-10-17T05:42:23.180Z,6.77
2022-10-17T05:44:52.054Z,7.23
2022-10-17T05:47:21.708Z,7.07
2022-10-17T05:49:52.445Z,7.13
2022-10-17T05:52:27.957Z,6.70
2022-10-17T05:55:08.919Z,7.80
2022-10-17T05:57:37.714Z,6.90
2022-10-17T06:00:11.718Z,7.60
2022-10-17T06:02:43.689Z,7.70
2022-10-17T06:05:17.234Z,7.90
2022-10-17T06:07:52.769Z,7.30
2022-10-17T06:10:24.177Z,7.37
2022-10-17T06:12:52.837Z,7.87
2022-10-17T06:15:25.245Z,8.20
2022-10-17T06:18:00.385Z,7.63
2022-10-17T06:20:28.868Z,7.23
2022-10-17T06:22:57.485Z,8.37
2022-10-17T06:25:41.483Z,8.40
2022-10-17T06:28:10.730Z,8.17
2022-10-17T06:30:40.353Z,8.33
2022-10-17T06:33:09.215Z,9.27
2022-10-17T06:35:38.231Z,9.60
2022-10-17T06:38:07.149Z,9.10
2022-10-17T06:40:37.933Z,8.53
2022-10-17T06:43:08.029Z,8.47
2022-10-17T06:45:52.943Z,9.20
2022-10-17T06:48:53.808Z,8.97
2022-10-17T06:51:41.808Z,8.30
2022-10-17T06:54:12.303Z,8.73
2022-10-17T06:56:53.212Z,7.63
2022-10-17T06:59:35.992Z,8.00
2022-10-17T07:02:23.803Z,7.70
2022-10-17T07:04:57.725Z,8.00
2022-10-17T07:07:26.497Z,8.87
2022-10-17T07:09:57.334Z,8.23
2022-10-17T07:12:26.594Z,8.07
2022-10-17T07:14:58.213Z,8.03
2022-10-17T07:17:27.121Z,8.43
2022-10-17T07:19:55.944Z,8.20
2022-10-17T07:22:25.370Z,8.57
2022-10-17T07:25:01.152Z,8.23
2022-10-17T07:27:38.823Z,7.27
2022-10-17T07:30:11.620Z,7.00
2022-10-17T07:32:43.184Z,7.90
2022-10-17T07:35:12.757Z,6.97
2022-10-17T07:37:42.915Z,7.67
2022-10-17T07:40:12.795Z,6.73
2022-10-17T07:42:41.657Z,7.27
2022-10-17T07:45:12.661Z,7.10
2022-10-17T07:47:41.598Z,6.67
2022-10-17T07:50:11.735Z,7.27
2022-10-17T07:52:40.455Z,6.50
2022-10-17T07:55:10.891Z,7.23
2022-10-17T07:57:42.244Z,6.90
2022-10-17T08:00:13.783Z,8.00
2022-10-17T08:02:43.843Z,7.40
2022-10-17T08:05:12.547Z,7.40
2022-10-17T08:07:41.954Z,7.87
2022-10-17T08:10:12.804Z,7.60
2022-10-17T08:12:41.307Z,7.10
2022-10-17T08:15:12.936Z,6.80
2022-10-17T08:17:41.820Z,7.10
2022-10-17T08:20:12.311Z,7.20
2022-10-17T08:22:41.394Z,7.17
2022-10-17T08:25:11.776Z,7.87
2022-10-17T08:27:40.661Z,7.30
2022-10-17T08:30:12.626Z,7.23
2022-10-17T08:32:41.357Z,7.47
2022-10-17T08:35:12.099Z,7.50
2022-10-17T08:37:40.888Z,8.00
2022-10-17T08:40:16.470Z,8.60
2022-10-17T08:43:17.966Z,8.57
2022-10-17T08:45:55.855Z,8.03
2022-10-17T08:48:28.542Z,7.73
2022-10-17T08:51:02.146Z,8.40
2022-10-17T08:53:37.172Z,7.80
2022-10-17T08:56:19.863Z,8.00
2022-10-17T08:58:53.771Z,7.57
2022-10-17T09:01:38.140Z,8.20
2022-10-17T09:04:37.150Z,7.47
2022-10-17T09:07:14.851Z,8.97
2022-10-17T09:09:55.823Z,8.20
2022-10-17T09:12:34.842Z,8.10
2022-10-17T09:25:10.583Z,7.60
2022-10-17T09:37:05.986Z,8.40
2022-10-17T09:40:53.686Z,8.43
2022-10-17T09:48:13.817Z,8.00
2022-10-17T10:00:28.302Z,6.70
2022-10-17T10:12:53.147Z,5.87
2022-10-17T10:21:26.424Z,5.90
2022-10-17T10:32:18.389Z,6.33
2022-10-17T10:34:52.417Z,6.10
2022-10-17T10:37:26.686Z,5.77
2022-10-17T10:39:57.982Z,5.87
2022-10-17T10:42:31.062Z,6.40
2022-10-17T10:45:29.233Z,7.23
2022-10-17T10:48:08.552Z,5.73
2022-10-17T10:50:45.448Z,7.03
2022-10-17T10:53:34.925Z,7.50
2022-10-17T10:56:12.040Z,7.17
2022-10-17T10:58:53.065Z,7.13
2022-10-17T11:01:31.933Z,6.97
2022-10-17T11:04:29.763Z,6.77
2022-10-17T11:07:06.119Z,6.80
2022-10-17T11:09:52.616Z,6.47
2022-10-17T11:12:32.052Z,5.80
2022-10-17T11:15:09.540Z,6.10
2022-10-17T11:17:47.292Z,6.53
2022-10-17T11:20:26.550Z,6.90
2022-10-17T11:23:03.805Z,6.40
2022-10-17T11:25:40.247Z,7.20
2022-10-17T11:28:27.596Z,7.30
2022-10-17T11:31:05.734Z,7.20
2022-10-17T11:33:51.314Z,7.87
2022-10-17T11:36:38.791Z,7.50
2022-10-17T11:39:11.676Z,8.17
2022-10-17T11:41:48.425Z,7.90
2022-10-17T11:44:28.297Z,8.40
2022-10-17T11:47:05.486Z,8.00
2022-10-17T11:49:42.909Z,8.70
2022-10-17T11:52:51.748Z,8.97
2022-10-17T11:55:23.457Z,7.37
2022-10-17T11:58:14.223Z,7.20
2022-10-17T12:00:56.460Z,8.97
2022-10-17T12:03:44.347Z,8.20
2022-10-17T12:06:33.238Z,8.20
2022-10-17T12:09:13.822Z,7.30
2022-10-17T12:11:54.214Z,7.90
2022-10-17T12:14:45.309Z,8.17
2022-10-17T12:17:39.591Z,7.30
2022-10-17T12:20:36.645Z,8.70
2022-10-17T12:23:30.225Z,8.27
2022-10-17T12:26:05.411Z,8.20
2022-10-17T12:28:42.021Z,8.53
2022-10-17T12:31:29.745Z,7.90
2022-10-17T12:34:04.864Z,8.77
2022-10-17T12:36:49.196Z,8.60
2022-10-17T12:39:47.046Z,9.90
2022-10-17T12:42:49.875Z,10.50
2022-10-17T12:45:49.137Z,8.90
2022-10-17T12:49:01.900Z,10.77
2022-10-17T12:51:51.397Z,10.93
2022-10-17T12:54:20.569Z,11.20
2022-10-17T12:56:51.895Z,10.20
2022-10-17T12:59:26.011Z,9.57
2022-10-17T13:01:58.610Z,9.13
2022-10-17T13:04:28.521Z,9.50
2022-10-17T13:07:01.120Z,10.50
2022-10-17T13:09:33.920Z,8.73
2022-10-17T13:12:07.626Z,10.00
2022-10-17T13:14:40.468Z,9.40
2022-10-17T13:17:24.585Z,9.20
2022-10-17T13:19:53.504Z,9.40
2022-10-17T13:22:24.448Z,8.80
2022-10-17T13:24:55.198Z,9.17
2022-10-17T13:27:28.985Z,8.20
2022-10-17T13:30:00.230Z,8.40
2022-10-17T13:32:40.835Z,7.80
2022-10-17T13:35:12.793Z,8.17
2022-10-17T13:37:43.794Z,7.53
2022-10-17T13:40:40.885Z,7.03
2022-10-17T13:43:17.313Z,6.47
2022-10-17T13:45:50.830Z,6.53
2022-10-17T13:48:24.102Z,5.40
2022-10-17T13:50:57.175Z,6.00
2022-10-17T13:53:32.962Z,5.07
2022-10-17T13:56:30.249Z,4.97
2022-10-17T13:58:58.258Z,5.50
2022-10-17T14:01:29.715Z,5.00
2022-10-17T14:04:08.425Z,5.53
2022-10-17T14:06:49.474Z,5.20
2022-10-17T14:09:24.658Z,5.33
2022-10-17T14:12:03.925Z,5.80
2022-10-17T14:14:51.732Z,6.13
2022-10-17T14:17:28.382Z,7.97
2022-10-17T14:20:34.432Z,6.70
2022-10-17T14:23:23.341Z,6.73
2022-10-17T14:25:42.669Z,6.60
2022-10-17T14:28:18.466Z,7.07
2022-10-17T14:30:56.808Z,6.40
2022-10-17T14:33:30.494Z,7.37
2022-10-17T14:36:01.220Z,7.23
2022-10-17T14:38:31.305Z,7.20
2022-10-17T14:41:37.320Z,6.70
2022-10-17T14:44:00.796Z,6.70
2022-10-17T14:46:30.928Z,7.33
2022-10-17T14:49:07.506Z,7.50
2022-10-17T14:51:50.231Z,7.30
2022-10-17T14:54:29.928Z,6.83
2022-10-17T14:56:58.560Z,6.80
2022-10-17T14:59:53.811Z,6.27
2022-10-17T15:02:17.079Z,6.70
2022-10-17T15:04:47.084Z,7.00
2022-10-17T15:07:16.603Z,6.47
2022-10-17T15:09:46.547Z,6.87
2022-10-17T15:12:18.357Z,7.50
2022-10-17T15:14:48.588Z,7.00
2022-10-17T15:17:21.305Z,6.87
2022-10-17T15:19:50.810Z,7.23
2022-10-17T15:22:19.614Z,7.53
2022-10-17T15:24:48.528Z,7.70
2022-10-17T15:27:19.324Z,7.37
2022-10-17T15:29:50.808Z,7.10
2022-10-17T15:32:20.804Z,6.23
2022-10-17T15:34:49.307Z,5.53
2022-10-17T15:37:22.500Z,5.73
2022-10-17T15:39:54.593Z,5.87
2022-10-17T15:42:27.495Z,5.63
2022-10-17T15:44:56.566Z,6.10
2022-10-17T15:47:31.309Z,6.13
2022-10-17T15:50:03.776Z,6.17
2022-10-17T15:52:32.660Z,6.70
2022-10-17T15:55:04.298Z,7.60
2022-10-17T15:57:39.629Z,7.17
2022-10-17T16:00:16.824Z,7.33
2022-10-17T16:02:47.567Z,7.20
2022-10-17T16:05:19.197Z,7.40
2022-10-17T16:07:48.604Z,7.47
2022-10-17T16:10:18.535Z,7.87
2022-10-17T16:12:51.013Z,7.40
2022-10-17T16:15:23.713Z,8.77
2022-10-17T16:17:55.568Z,8.93
2022-10-17T16:20:25.893Z,8.47
2022-10-17T16:22:59.952Z,8.10
2022-10-17T16:25:31.352Z,8.57
2022-10-17T16:28:01.487Z,7.73
2022-10-17T16:30:31.843Z,8.00
2022-10-17T16:33:02.125Z,11.70
2022-10-17T16:35:35.054Z,9.53
2022-10-17T16:38:06.971Z,10.53
2022-10-17T16:40:36.120Z,11.50
2022-10-17T16:43:04.761Z,11.13
2022-10-17T16:45:33.499Z,9.70
2022-10-17T16:48:03.404Z,8.57
2022-10-17T16:50:35.607Z,8.83
2022-10-17T16:53:04.557Z,8.50
2022-10-17T16:55:33.413Z,8.87
2022-10-17T16:58:02.135Z,9.00
2022-10-17T17:00:32.734Z,8.60
2022-10-17T17:03:02.781Z,9.93
2022-10-17T17:05:31.389Z,11.20
2022-10-17T17:08:00.983Z,10.87
2022-10-17T17:10:32.492Z,14.30
2022-10-17T17:13:01.742Z,11.57
2022-10-17T17:15:30.707Z,11.13
2022-10-17T17:18:04.046Z,10.47
2022-10-17T17:20:36.915Z,10.50
2022-10-17T17:23:05.547Z,10.03
2022-10-17T17:25:36.348Z,9.63
2022-10-17T17:28:04.842Z,9.80
2022-10-17T17:30:35.467Z,9.70
2022-10-17T17:33:04.150Z,10.77
2022-10-17T17:35:33.133Z,9.40
2022-10-17T17:38:04.686Z,9.40
2022-10-17T17:40:34.563Z,9.53
2022-10-17T17:43:03.405Z,11.17
2022-10-17T17:45:31.841Z,10.57
2022-10-17T17:48:00.337Z,13.77
2022-10-17T17:50:29.464Z,12.27
2022-10-17T17:52:58.180Z,12.70
2022-10-17T17:55:30.959Z,13.10
2022-10-17T17:57:59.632Z,12.57
2022-10-17T18:00:30.081Z,15.03
2022-10-17T18:02:59.062Z,13.90
2022-10-17T18:05:30.551Z,13.33
2022-10-17T18:07:59.233Z,12.90
2022-10-17T18:10:30.450Z,12.53
2022-10-17T18:12:59.184Z,12.20
2022-10-17T18:15:27.697Z,11.30
2022-10-17T18:17:56.283Z,11.47
2022-10-17T18:20:24.980Z,12.13
2022-10-17T18:22:53.561Z,12.67
2022-10-17T18:25:22.243Z,12.47
2022-10-17T18:27:52.320Z,12.03
2022-10-17T18:30:22.565Z,10.60
2022-10-17T18:32:54.717Z,12.70
2022-10-17T18:35:23.827Z,13.27
2022-10-17T18:37:56.590Z,13.87
2022-10-17T18:40:28.086Z,13.07
2022-10-17T18:42:58.508Z,11.37
2022-10-17T18:45:27.487Z,12.57
2022-10-17T18:47:56.087Z,13.13
2022-10-17T18:50:26.330Z,12.40
2022-10-17T18:52:55.103Z,11.23
2022-10-17T18:55:25.100Z,11.00
2022-10-17T18:57:53.808Z,11.93
2022-10-17T19:00:23.957Z,11.40
2022-10-17T19:02:53.239Z,11.67
2022-10-17T19:05:22.266Z,10.90
2022-10-17T19:07:53.155Z,11.00
2022-10-17T19:10:25.819Z,11.73
2022-10-17T19:12:55.052Z,11.30
2022-10-17T19:15:26.024Z,11.23
2022-10-17T19:18:01.004Z,11.40
2022-10-17T19:20:31.507Z,11.13
2022-10-17T19:23:03.091Z,11.27
2022-10-17T19:25:34.968Z,11.70
2022-10-17T19:28:03.749Z,12.77
2022-10-17T19:30:34.857Z,10.60
2022-10-17T19:33:03.639Z,11.93
2022-10-17T19:35:32.629Z,12.33
2022-10-17T19:38:01.420Z,10.80
2022-10-17T19:40:30.218Z,11.83
2022-10-17T19:42:58.959Z,11.57
2022-10-17T19:45:27.731Z,11.37
2022-10-17T19:47:57.838Z,13.33
2022-10-17T19:50:26.480Z,11.97
2022-10-17T19:52:55.275Z,12.90
2022-10-17T19:55:26.181Z,13.77
2022-10-17T19:57:54.911Z,12.43
2022-10-17T20:00:24.196Z,12.77
2022-10-17T20:02:53.189Z,13.63
2022-10-17T20:05:27.271Z,12.83
2022-10-17T20:07:57.324Z,12.27
2022-10-17T20:10:27.859Z,13.10
2022-10-17T20:12:56.592Z,12.73
2022-10-17T20:15:25.421Z,13.07
2022-10-17T20:17:54.079Z,13.40
2022-10-17T20:20:24.311Z,12.47
2022-10-17T20:22:52.909Z,12.57
2022-10-17T20:25:21.420Z,11.87
2022-10-17T20:27:52.368Z,12.93
2022-10-17T20:30:21.205Z,12.40
2022-10-17T20:32:55.061Z,12.00
2022-10-17T20:35:25.657Z,11.60
2022-10-17T20:37:54.349Z,11.97
2022-10-17T20:40:39.700Z,11.83
2022-10-17T20:43:10.959Z,12.47
2022-10-17T20:45:50.974Z,12.57
2022-10-17T20:48:20.400Z,11.50
2022-10-17T20:50:54.324Z,12.60
2022-10-17T20:53:38.207Z,12.40
2022-10-17T20:56:10.029Z,12.70
2022-10-17T20:58:39.343Z,12.37
2022-10-17T21:01:09.842Z,11.90
2022-10-17T21:03:42.544Z,13.87
2022-10-17T21:06:17.159Z,12.60
2022-10-17T21:08:46.742Z,12.40
2022-10-17T21:11:18.732Z,11.03
2022-10-17T21:13:48.678Z,12.07
2022-10-17T21:16:19.953Z,13.30
2022-10-17T21:18:49.639Z,12.40
2022-10-17T21:21:21.951Z,12.70
2022-10-17T21:23:52.494Z,12.80
2022-10-17T21:26:23.731Z,12.53
2022-10-17T21:28:52.854Z,13.73
2022-10-17T21:31:28.508Z,13.07
2022-10-17T21:34:00.244Z,13.80
2022-10-17T21:36:30.445Z,14.53
2022-10-17T21:38:59.803Z,14.27
2022-10-17T21:41:31.520Z,16.40
2022-10-17T21:44:03.178Z,15.13
2022-10-17T21:46:33.744Z,14.90
2022-10-17T21:49:02.692Z,14.83
2022-10-17T21:51:33.036Z,13.53
2022-10-17T21:54:05.676Z,14.10
2022-10-17T21:56:36.397Z,14.43
2022-10-17T21:59:05.910Z,13.97
2022-10-17T22:01:38.218Z,14.77
2022-10-17T22:04:09.487Z,13.10
2022-10-17T22:06:41.301Z,13.90
2022-10-17T22:09:14.234Z,14.70
2022-10-17T22:11:44.995Z,12.67
2022-10-17T22:14:16.275Z,12.37
2022-10-17T22:16:46.532Z,12.13
2022-10-17T22:19:18.690Z,12.27
2022-10-17T22:21:48.642Z,13.33
2022-10-17T22:24:19.354Z,12.67
2022-10-17T22:26:48.647Z,12.90
2022-10-17T22:29:17.426Z,14.17
2022-10-17T22:31:46.383Z,15.53
2022-10-17T22:34:17.486Z,15.97
2022-10-17T22:36:47.848Z,15.73
2022-10-17T22:39:16.685Z,13.57
2022-10-17T22:41:45.227Z,13.10
2022-10-17T22:44:13.915Z,13.17
2022-10-17T22:46:42.677Z,12.67
2022-10-17T22:49:11.155Z,12.80
2022-10-17T22:51:39.654Z,12.30
2022-10-17T22:54:09.602Z,12.97
2022-10-17T22:56:38.251Z,12.20
2022-10-17T22:59:06.892Z,12.03
2022-10-17T23:01:35.551Z,12.07
2022-10-17T23:04:04.143Z,13.30
2022-10-17T23:06:32.828Z,12.73
2022-10-17T23:09:01.621Z,12.90
2022-10-17T23:11:31.619Z,13.83
2022-10-17T23:14:00.171Z,11.83
2022-10-17T23:16:30.131Z,13.03
2022-10-17T23:18:59.527Z,13.70
2022-10-17T23:21:28.051Z,14.30
2022-10-17T23:23:56.537Z,13.40
2022-10-17T23:26:25.103Z,12.50
2022-10-17T23:28:56.785Z,12.53
2022-10-17T23:31:25.926Z,12.93
2022-10-17T23:33:54.544Z,13.23
2022-10-17T23:36:23.422Z,12.67
2022-10-17T23:38:55.026Z,13.27
2022-10-17T23:41:26.340Z,12.10
2022-10-17T23:43:56.207Z,12.50
2022-10-17T23:46:24.854Z,12.30
2022-10-17T23:48:53.459Z,12.87
2022-10-17T23:51:22.447Z,12.20
2022-10-17T23:53:53.300Z,12.50
2022-10-17T23:56:23.910Z,13.40
2022-10-17T23:58:52.525Z,13.27
